createdAt,value
2022-09-06T00:00:15.880Z,1.40
2022-09-06T00:01:11.404Z,1.10
2022-09-06T00:02:20.090Z,1.20
2022-09-06T00:02:59.820Z,1.20
2022-09-06T00:03:56.878Z,1.20
2022-09-06T00:05:01.061Z,1.20
2022-09-06T00:06:25.699Z,1.30
2022-09-06T00:07:06.005Z,1.00
2022-09-06T00:09:28.031Z,1.10
2022-09-06T00:10:21.096Z,1.20
2022-09-06T00:11:22.699Z,1.40
2022-09-06T00:12:34.069Z,1.00
2022-09-06T00:13:25.081Z,1.10
2022-09-06T00:14:29.629Z,1.20
2022-09-06T00:15:25.096Z,1.40
2022-09-06T00:17:58.580Z,1.20
2022-09-06T00:20:41.836Z,1.10
2022-09-06T00:21:44.369Z,1.20
2022-09-06T00:22:39.156Z,1.30
2022-09-06T00:23:45.643Z,1.10
2022-09-06T00:24:41.335Z,1.30
2022-09-06T00:25:39.334Z,1.20
2022-09-06T00:26:48.006Z,1.30
2022-09-06T00:27:45.724Z,1.30
2022-09-06T00:28:39.366Z,1.10
2022-09-06T00:29:45.614Z,1.20
2022-09-06T00:30:44.335Z,1.10
2022-09-06T00:31:46.922Z,1.40
2022-09-06T00:33:06.854Z,1.30
2022-09-06T00:33:44.015Z,1.10
2022-09-06T00:34:46.905Z,1.40
2022-09-06T00:35:41.130Z,1.30
2022-09-06T00:36:54.977Z,1.30
2022-09-06T00:37:55.149Z,1.20
2022-09-06T00:39:02.751Z,1.30
2022-09-06T00:39:58.056Z,1.00
2022-09-06T00:40:41.094Z,1.20
2022-09-06T00:41:47.626Z,1.10
2022-09-06T00:42:39.352Z,1.20
2022-09-06T00:43:42.497Z,1.40
2022-09-06T00:44:48.123Z,1.20
2022-09-06T00:45:43.845Z,1.40
2022-09-06T00:46:50.208Z,1.20
2022-09-06T00:47:46.005Z,1.30
2022-09-06T00:48:53.539Z,1.30
2022-09-06T00:50:09.984Z,1.30
2022-09-06T00:51:08.501Z,1.40
2022-09-06T00:51:39.657Z,1.30
2022-09-06T00:52:40.319Z,1.20
2022-09-06T00:53:48.327Z,1.20
2022-09-06T00:54:43.459Z,1.20
2022-09-06T00:55:40.739Z,1.30
2022-09-06T00:56:42.746Z,1.30
2022-09-06T00:57:40.914Z,1.10
2022-09-06T00:58:37.987Z,1.30
2022-09-06T00:59:39.964Z,1.20
2022-09-06T01:00:38.034Z,1.10
2022-09-06T01:01:38.264Z,1.10
2022-09-06T01:02:41.265Z,1.10
2022-09-06T01:03:38.816Z,1.10
2022-09-06T01:04:37.901Z,1.20
2022-09-06T01:05:38.519Z,1.20
2022-09-06T01:06:40.418Z,1.30
2022-09-06T01:07:38.851Z,1.00
2022-09-06T01:08:46.563Z,1.30
2022-09-06T01:09:41.111Z,0.90
2022-09-06T01:10:39.264Z,1.20
2022-09-06T01:11:37.830Z,1.30
2022-09-06T01:12:39.188Z,1.30
2022-09-06T01:13:39.462Z,1.00
2022-09-06T01:14:45.319Z,1.10
2022-09-06T01:15:48.084Z,1.10
2022-09-06T01:16:42.190Z,1.20
2022-09-06T01:17:43.502Z,1.20
2022-09-06T01:18:42.201Z,1.20
2022-09-06T01:19:43.170Z,1.40
2022-09-06T01:20:43.132Z,1.30
2022-09-06T01:21:41.161Z,1.20
2022-09-06T01:22:41.903Z,1.00
2022-09-06T01:23:43.799Z,1.20
2022-09-06T01:24:44.034Z,1.10
2022-09-06T01:25:44.521Z,1.20
2022-09-06T01:26:39.623Z,1.30
2022-09-06T01:27:42.241Z,1.20
2022-09-06T01:28:45.335Z,1.20
2022-09-06T01:29:37.692Z,1.20
2022-09-06T01:30:38.265Z,1.10
2022-09-06T01:31:44.878Z,1.10
2022-09-06T01:33:01.409Z,1.30
2022-09-06T01:33:40.239Z,1.10
2022-09-06T01:34:38.735Z,1.00
2022-09-06T01:35:42.058Z,1.20
2022-09-06T01:36:49.669Z,1.10
2022-09-06T01:37:38.356Z,1.20
2022-09-06T01:38:42.182Z,1.10
2022-09-06T01:39:42.036Z,1.10
2022-09-06T01:40:44.036Z,1.10
2022-09-06T01:41:38.697Z,1.20
2022-09-06T01:42:42.728Z,1.30
2022-09-06T01:43:40.380Z,1.10
2022-09-06T01:44:37.341Z,1.10
2022-09-06T01:45:37.859Z,1.00
2022-09-06T01:46:37.513Z,1.10
2022-09-06T01:47:37.499Z,1.20
2022-09-06T01:48:37.411Z,1.10
2022-09-06T01:49:40.379Z,1.20
2022-09-06T01:50:37.338Z,1.00
2022-09-06T01:51:37.355Z,1.40
2022-09-06T01:52:37.738Z,1.30
2022-09-06T01:53:37.366Z,1.20
2022-09-06T01:54:39.023Z,1.40
2022-09-06T01:56:08.132Z,1.10
2022-09-06T01:56:37.250Z,1.30
2022-09-06T01:57:39.200Z,1.20
2022-09-06T01:58:42.981Z,1.00
2022-09-06T01:59:38.276Z,1.20
2022-09-06T02:00:58.967Z,1.20
2022-09-06T02:01:38.932Z,1.30
2022-09-06T02:02:43.917Z,1.10
2022-09-06T02:03:38.552Z,1.40
2022-09-06T02:04:40.413Z,1.30
2022-09-06T02:05:38.821Z,1.20
2022-09-06T02:06:41.763Z,1.40
2022-09-06T02:07:37.358Z,1.20
2022-09-06T02:08:47.155Z,1.10
2022-09-06T02:09:43.107Z,1.30
2022-09-06T02:10:41.235Z,1.20
2022-09-06T02:11:37.119Z,1.10
2022-09-06T02:12:39.338Z,1.10
2022-09-06T02:13:37.197Z,1.10
2022-09-06T02:14:37.045Z,1.40
2022-09-06T02:15:42.423Z,1.20
2022-09-06T02:16:37.984Z,1.30
2022-09-06T02:17:37.026Z,1.10
2022-09-06T02:18:36.887Z,1.00
2022-09-06T02:19:41.024Z,1.00
2022-09-06T02:20:36.872Z,1.00
2022-09-06T02:21:38.648Z,1.20
2022-09-06T02:22:38.519Z,1.20
2022-09-06T02:23:36.842Z,1.10
2022-09-06T02:24:42.053Z,1.40
2022-09-06T02:25:43.413Z,1.20
2022-09-06T02:26:43.985Z,1.30
2022-09-06T02:27:38.140Z,1.20
2022-09-06T02:28:43.628Z,1.00
2022-09-06T02:29:38.050Z,1.30
2022-09-06T02:30:36.689Z,1.40
2022-09-06T02:31:36.852Z,1.40
2022-09-06T02:32:46.353Z,1.10
2022-09-06T02:33:41.218Z,1.00
2022-09-06T02:34:38.646Z,1.20
2022-09-06T02:35:39.365Z,1.10
2022-09-06T02:36:38.143Z,1.20
2022-09-06T02:37:38.216Z,1.10
2022-09-06T02:38:48.324Z,1.20
2022-09-06T02:40:06.423Z,1.40
2022-09-06T02:40:51.783Z,1.30
2022-09-06T02:41:52.708Z,1.20
2022-09-06T02:42:36.524Z,1.00
2022-09-06T02:43:46.313Z,1.20
2022-09-06T02:44:44.664Z,1.40
2022-09-06T02:45:43.686Z,1.50
2022-09-06T02:46:46.655Z,1.50
2022-09-06T02:47:38.909Z,1.40
2022-09-06T02:48:43.949Z,1.40
2022-09-06T02:49:48.350Z,1.30
2022-09-06T02:50:41.645Z,1.20
2022-09-06T02:51:37.497Z,1.40
2022-09-06T02:52:38.265Z,1.20
2022-09-06T02:53:42.206Z,1.30
2022-09-06T02:54:37.198Z,1.40
2022-09-06T02:55:44.516Z,1.00
2022-09-06T02:56:41.069Z,1.10
2022-09-06T02:57:55.003Z,1.10
2022-09-06T02:59:04.035Z,1.20
2022-09-06T03:01:05.566Z,1.30
2022-09-06T03:02:01.870Z,1.20
2022-09-06T03:03:02.767Z,1.20
2022-09-06T03:03:59.770Z,1.20
2022-09-06T03:05:04.789Z,1.30
2022-09-06T03:06:08.524Z,1.10
2022-09-06T03:07:06.203Z,1.10
2022-09-06T03:08:26.713Z,1.00
2022-09-06T03:08:59.259Z,1.30
2022-09-06T03:09:59.803Z,1.20
2022-09-06T03:11:14.914Z,1.20
2022-09-06T03:11:59.238Z,1.00
2022-09-06T03:12:58.253Z,1.00
2022-09-06T03:13:58.260Z,1.10
2022-09-06T03:14:58.241Z,1.10
2022-09-06T03:16:00.755Z,1.10
2022-09-06T03:17:00.435Z,1.20
2022-09-06T03:17:58.327Z,1.10
2022-09-06T03:18:59.382Z,1.10
2022-09-06T03:20:02.324Z,1.10
2022-09-06T03:21:03.117Z,1.00
2022-09-06T03:21:59.929Z,1.20
2022-09-06T03:23:00.614Z,1.30
2022-09-06T03:23:59.666Z,1.30
2022-09-06T03:24:58.057Z,1.30
2022-09-06T03:25:58.183Z,1.10
2022-09-06T03:26:58.008Z,1.00
2022-09-06T03:27:58.265Z,1.00
2022-09-06T03:28:58.201Z,1.10
2022-09-06T03:29:58.014Z,1.00
2022-09-06T03:30:58.765Z,1.10
2022-09-06T03:32:00.425Z,1.20
2022-09-06T03:33:02.792Z,1.20
2022-09-06T03:33:59.103Z,0.90
2022-09-06T03:34:59.835Z,1.10
2022-09-06T03:35:58.291Z,1.10
2022-09-06T03:36:58.058Z,0.90
2022-09-06T03:37:57.842Z,1.20
2022-09-06T03:38:58.605Z,1.00
2022-09-06T03:39:58.747Z,1.00
2022-09-06T03:40:58.444Z,1.30
2022-09-06T03:41:59.186Z,1.20
2022-09-06T03:43:01.560Z,1.00
2022-09-06T03:43:58.868Z,1.20
2022-09-06T03:44:57.970Z,1.30
2022-09-06T03:45:57.914Z,1.30
2022-09-06T03:46:57.708Z,1.20
2022-09-06T03:47:59.326Z,1.10
2022-09-06T03:49:04.657Z,1.00
2022-09-06T03:50:00.433Z,1.20
2022-09-06T03:50:58.666Z,1.00
2022-09-06T03:52:00.141Z,1.30
2022-09-06T03:53:04.517Z,1.20
2022-09-06T03:53:59.033Z,1.20
2022-09-06T03:55:02.832Z,1.00
2022-09-06T03:55:59.418Z,1.10
2022-09-06T03:56:59.820Z,1.20
2022-09-06T03:58:00.086Z,1.20
2022-09-06T03:58:58.524Z,1.40
2022-09-06T03:59:59.832Z,1.20
2022-09-06T04:01:01.855Z,1.20
2022-09-06T04:02:01.376Z,1.00
2022-09-06T04:03:01.836Z,1.20
2022-09-06T04:03:58.054Z,1.20
2022-09-06T04:04:58.875Z,1.40
2022-09-06T04:05:57.874Z,1.30
2022-09-06T04:07:02.455Z,1.20
2022-09-06T04:07:57.510Z,1.30
2022-09-06T04:08:58.235Z,1.70
2022-09-06T04:09:58.620Z,1.40
2022-09-06T04:10:58.006Z,1.40
2022-09-06T04:11:57.575Z,1.40
2022-09-06T04:12:59.967Z,1.50
2022-09-06T04:13:59.862Z,1.50
2022-09-06T04:14:57.647Z,1.30
2022-09-06T04:15:57.727Z,1.20
2022-09-06T04:16:57.617Z,1.10
2022-09-06T04:17:58.455Z,1.30
2022-09-06T04:19:01.246Z,1.40
2022-09-06T04:19:58.386Z,1.40
2022-09-06T04:21:12.590Z,1.30
2022-09-06T04:21:59.831Z,1.30
2022-09-06T04:22:58.485Z,1.40
2022-09-06T04:23:59.300Z,1.40
2022-09-06T04:24:59.288Z,1.50
2022-09-06T04:25:58.085Z,1.20
2022-09-06T04:26:58.285Z,1.20
2022-09-06T04:27:57.749Z,1.60
2022-09-06T04:28:58.506Z,1.40
2022-09-06T04:29:58.482Z,1.40
2022-09-06T04:31:01.942Z,1.40
2022-09-06T04:32:02.090Z,1.50
2022-09-06T04:32:58.429Z,1.50
2022-09-06T04:34:00.641Z,1.60
2022-09-06T04:34:57.349Z,1.20
2022-09-06T04:35:58.315Z,1.30
2022-09-06T04:36:57.615Z,1.10
2022-09-06T04:37:59.131Z,1.60
2022-09-06T04:39:02.553Z,1.70
2022-09-06T04:39:57.935Z,1.50
2022-09-06T04:40:59.825Z,1.50
2022-09-06T04:41:58.246Z,1.40
2022-09-06T04:43:02.757Z,1.50
2022-09-06T04:43:58.877Z,1.30
2022-09-06T04:44:58.987Z,1.50
2022-09-06T04:45:57.793Z,1.20
2022-09-06T04:46:58.688Z,1.40
2022-09-06T04:47:57.722Z,1.50
2022-09-06T04:48:57.636Z,1.50
2022-09-06T04:49:56.999Z,1.40
2022-09-06T04:50:57.478Z,1.40
2022-09-06T04:51:57.524Z,1.20
2022-09-06T04:52:58.478Z,1.30
2022-09-06T04:53:57.707Z,1.20
2022-09-06T04:54:57.925Z,1.20
2022-09-06T04:55:57.538Z,1.70
2022-09-06T04:56:57.594Z,1.60
2022-09-06T04:57:57.055Z,1.40
2022-09-06T04:58:56.991Z,1.50
2022-09-06T04:59:56.929Z,1.50
2022-09-06T05:00:57.918Z,1.40
2022-09-06T05:01:57.992Z,1.50
2022-09-06T05:03:01.841Z,1.70
2022-09-06T05:03:57.567Z,1.70
2022-09-06T05:04:56.957Z,1.70
2022-09-06T05:05:59.009Z,1.70
2022-09-06T05:06:57.328Z,1.50
2022-09-06T05:07:58.087Z,1.60
2022-09-06T05:08:59.104Z,1.60
2022-09-06T05:09:59.468Z,1.50
2022-09-06T05:10:59.358Z,1.40
2022-09-06T05:11:57.239Z,1.50
2022-09-06T05:12:59.035Z,1.80
2022-09-06T05:13:56.661Z,1.70
2022-09-06T05:14:58.011Z,1.70
2022-09-06T05:15:56.796Z,1.70
2022-09-06T05:16:57.293Z,1.30
2022-09-06T05:17:57.299Z,1.70
2022-09-06T05:18:56.763Z,1.60
2022-09-06T05:19:58.534Z,1.50
2022-09-06T05:20:56.860Z,1.60
2022-09-06T05:21:57.257Z,1.50
2022-09-06T05:22:58.183Z,1.60
2022-09-06T05:23:58.834Z,1.60
2022-09-06T05:24:58.094Z,1.60
2022-09-06T05:26:00.580Z,1.80
2022-09-06T05:28:24.686Z,1.90
2022-09-06T05:29:58.506Z,1.90
2022-09-06T05:31:53.938Z,1.60
2022-09-06T05:34:02.906Z,1.50
2022-09-06T05:34:59.118Z,1.60
2022-09-06T05:35:57.785Z,1.70
2022-09-06T05:36:59.039Z,1.80
2022-09-06T05:37:57.463Z,1.80
2022-09-06T05:38:57.736Z,1.80
2022-09-06T05:39:57.869Z,1.80
2022-09-06T05:40:58.558Z,1.80
2022-09-06T05:41:57.529Z,1.70
2022-09-06T05:42:57.500Z,1.50
2022-09-06T05:43:57.377Z,1.60
2022-09-06T05:44:57.743Z,1.90
2022-09-06T05:45:57.697Z,1.80
2022-09-06T05:46:57.575Z,1.70
2022-09-06T05:47:57.462Z,1.80
2022-09-06T05:48:57.359Z,1.80
2022-09-06T05:49:57.372Z,1.90
2022-09-06T05:50:57.444Z,1.50
2022-09-06T05:51:57.587Z,1.70
2022-09-06T05:52:57.217Z,1.80
2022-09-06T05:53:57.155Z,2.00
2022-09-06T05:54:57.152Z,1.80
2022-09-06T05:55:57.218Z,1.60
2022-09-06T05:56:57.852Z,1.70
2022-09-06T05:57:57.345Z,2.00
2022-09-06T05:58:57.218Z,1.80
2022-09-06T05:59:57.183Z,2.10
2022-09-06T06:00:57.186Z,1.80
2022-09-06T06:01:57.154Z,1.90
2022-09-06T06:02:57.421Z,2.30
2022-09-06T06:03:57.589Z,1.80
2022-09-06T06:04:57.627Z,1.90
2022-09-06T06:05:57.903Z,1.90
2022-09-06T06:06:57.609Z,2.10
2022-09-06T06:07:57.323Z,1.90
2022-09-06T06:08:57.596Z,1.70
2022-09-06T06:09:57.427Z,2.10
2022-09-06T06:10:57.407Z,2.00
2022-09-06T06:11:57.091Z,2.00
2022-09-06T06:12:57.539Z,1.60
2022-09-06T06:13:57.071Z,1.70
2022-09-06T06:14:57.622Z,1.70
2022-09-06T06:15:58.054Z,1.90
2022-09-06T06:16:57.076Z,2.00
2022-09-06T06:17:56.905Z,1.90
2022-09-06T06:18:57.053Z,2.00
2022-09-06T06:19:57.375Z,1.90
2022-09-06T06:20:57.165Z,1.80
2022-09-06T06:21:58.043Z,1.90
2022-09-06T06:22:57.110Z,1.80
2022-09-06T06:23:56.995Z,1.90
2022-09-06T06:24:58.994Z,1.90
2022-09-06T06:25:58.157Z,1.90
2022-09-06T06:26:56.733Z,1.70
2022-09-06T06:27:57.094Z,2.30
2022-09-06T06:28:57.029Z,2.00
2022-09-06T06:29:57.373Z,2.30
2022-09-06T06:30:56.809Z,2.30
2022-09-06T06:31:56.796Z,2.00
2022-09-06T06:32:56.945Z,2.00
2022-09-06T06:33:56.921Z,2.30
2022-09-06T06:34:57.180Z,2.00
2022-09-06T06:35:57.364Z,1.70
2022-09-06T06:36:57.677Z,2.20
2022-09-06T06:37:56.798Z,2.20
2022-09-06T06:38:57.382Z,2.00
2022-09-06T06:39:57.288Z,1.70
2022-09-06T06:41:02.006Z,2.10
2022-09-06T06:41:58.277Z,2.00
2022-09-06T06:42:56.702Z,2.20
2022-09-06T06:43:56.865Z,1.90
2022-09-06T06:44:57.672Z,1.90
2022-09-06T06:45:56.904Z,2.10
2022-09-06T06:46:56.969Z,1.90
2022-09-06T06:47:56.996Z,1.90
2022-09-06T06:48:57.360Z,2.10
2022-09-06T06:49:56.987Z,2.10
2022-09-06T06:50:57.997Z,2.10
2022-09-06T06:51:56.866Z,2.20
2022-09-06T06:52:57.134Z,2.10
2022-09-06T06:54:06.390Z,2.00
2022-09-06T06:54:59.141Z,2.20
2022-09-06T06:56:00.861Z,2.10
2022-09-06T06:56:57.725Z,2.10
2022-09-06T06:57:57.486Z,2.10
2022-09-06T07:14:24.338Z,2.50
2022-09-06T07:15:12.787Z,2.30
2022-09-06T07:16:13.664Z,2.20
2022-09-06T07:17:11.548Z,2.50
2022-09-06T07:18:31.910Z,2.50
2022-09-06T07:22:13.786Z,2.30
2022-09-06T07:24:12.070Z,2.60
2022-09-06T07:25:10.532Z,2.60
2022-09-06T07:26:10.352Z,2.20
2022-09-06T07:28:11.963Z,2.30
2022-09-06T07:29:10.723Z,2.40
2022-09-06T07:30:11.801Z,2.30
2022-09-06T07:32:12.136Z,2.50
2022-09-06T07:33:10.205Z,2.40
2022-09-06T07:34:10.715Z,2.20
2022-09-06T07:35:11.379Z,2.30
2022-09-06T07:36:10.529Z,2.30
2022-09-06T07:37:10.163Z,2.50
2022-09-06T07:38:09.927Z,2.40
2022-09-06T07:39:10.237Z,2.70
2022-09-06T07:40:09.982Z,2.50
2022-09-06T07:41:10.043Z,2.80
2022-09-06T07:42:10.414Z,2.50
2022-09-06T07:43:10.647Z,3.30
2022-09-06T07:44:09.796Z,2.50
2022-09-06T07:45:10.246Z,2.80
2022-09-06T07:46:09.974Z,2.80
2022-09-06T07:48:11.292Z,2.70
2022-09-06T07:49:10.142Z,2.90
2022-09-06T07:51:11.042Z,2.60
2022-09-06T07:53:14.970Z,2.70
2022-09-06T07:54:29.806Z,2.80
2022-09-06T07:55:10.980Z,2.80
2022-09-06T07:56:09.835Z,3.30
2022-09-06T07:57:10.007Z,2.90
2022-09-06T07:58:10.359Z,2.50
2022-09-06T07:59:09.973Z,2.40
2022-09-06T08:00:10.387Z,2.70
2022-09-06T08:01:09.784Z,2.70
2022-09-06T08:02:09.657Z,2.80
2022-09-06T08:03:09.576Z,3.20
2022-09-06T08:04:09.677Z,3.00
2022-09-06T08:06:11.006Z,2.80
2022-09-06T08:09:10.900Z,3.20
2022-09-06T08:10:10.293Z,2.50
2022-09-06T08:11:09.781Z,2.60
2022-09-06T08:12:09.705Z,2.80
2022-09-06T08:13:09.458Z,2.50
2022-09-06T08:14:09.866Z,2.20
2022-09-06T08:15:09.226Z,2.60
2022-09-06T08:16:09.541Z,3.10
2022-09-06T08:17:10.072Z,2.90
2022-09-06T08:18:09.787Z,3.00
2022-09-06T08:19:09.510Z,2.80
2022-09-06T08:20:09.473Z,2.80
2022-09-06T08:21:12.370Z,2.70
2022-09-06T08:22:09.356Z,3.10
2022-09-06T08:23:09.300Z,2.80
2022-09-06T08:24:09.152Z,2.50
2022-09-06T08:25:09.467Z,2.40
2022-09-06T08:26:09.525Z,2.80
2022-09-06T08:27:09.881Z,2.20
2022-09-06T08:28:10.065Z,2.50
2022-09-06T08:29:09.136Z,2.10
2022-09-06T08:30:09.201Z,2.20
2022-09-06T08:31:09.159Z,2.20
2022-09-06T08:32:09.310Z,2.20
2022-09-06T08:33:09.138Z,2.30
2022-09-06T08:34:09.001Z,2.50
2022-09-06T08:35:09.020Z,2.40
2022-09-06T08:36:09.207Z,2.30
2022-09-06T08:37:09.149Z,2.60
2022-09-06T08:38:09.097Z,2.40
2022-09-06T08:39:10.415Z,2.20
2022-09-06T08:40:09.091Z,2.40
2022-09-06T08:41:09.390Z,2.20
2022-09-06T08:42:09.109Z,2.10
2022-09-06T08:43:09.074Z,2.10
2022-09-06T08:45:10.274Z,2.00
2022-09-06T08:46:08.925Z,2.30
2022-09-06T08:47:08.912Z,2.30
2022-09-06T08:48:08.935Z,2.00
2022-09-06T08:49:08.891Z,2.00
2022-09-06T08:50:09.672Z,1.90
2022-09-06T08:51:08.756Z,2.10
2022-09-06T08:52:09.650Z,2.00
2022-09-06T08:53:18.233Z,1.90
2022-09-06T08:54:09.285Z,1.90
2022-09-06T08:55:08.669Z,2.00
2022-09-06T08:56:09.266Z,1.80
2022-09-06T08:57:08.800Z,1.90
2022-09-06T08:58:09.284Z,1.80
2022-09-06T08:59:08.986Z,1.50
2022-09-06T09:00:17.565Z,1.60
2022-09-06T09:01:08.629Z,1.70
2022-09-06T09:03:34.072Z,1.80
2022-09-06T09:04:34.861Z,1.90
2022-09-06T09:05:37.914Z,1.90
2022-09-06T09:06:37.199Z,2.00
2022-09-06T09:07:33.673Z,1.50
2022-09-06T09:08:34.710Z,1.50
2022-09-06T09:09:33.769Z,1.60
2022-09-06T09:10:37.566Z,1.70
2022-09-06T09:11:33.660Z,1.90
2022-09-06T09:14:25.105Z,1.70
2022-09-06T09:15:26.466Z,1.50
2022-09-06T09:16:26.002Z,1.90
2022-09-06T09:17:25.326Z,1.50
2022-09-06T09:18:26.365Z,1.70
2022-09-06T09:19:24.043Z,1.70
2022-09-06T09:20:28.170Z,1.70
2022-09-06T09:21:30.619Z,2.00
2022-09-06T09:22:24.136Z,1.80
2022-09-06T09:23:30.541Z,1.70
2022-09-06T09:24:24.233Z,1.80
2022-09-06T09:25:26.109Z,1.90
2022-09-06T09:26:24.121Z,1.80
2022-09-06T09:27:25.364Z,2.30
2022-09-06T09:28:27.403Z,2.00
2022-09-06T09:29:29.387Z,1.40
2022-09-06T09:31:36.859Z,1.90
2022-09-06T09:32:28.420Z,2.00
2022-09-06T09:33:27.943Z,1.70
2022-09-06T09:34:29.960Z,1.90
2022-09-06T09:35:32.209Z,2.00
2022-09-06T09:36:26.140Z,1.80
2022-09-06T09:38:25.433Z,2.20
2022-09-06T09:39:24.038Z,1.90
2022-09-06T09:40:26.481Z,1.80
2022-09-06T09:41:25.357Z,1.70
2022-09-06T09:42:25.240Z,1.90
2022-09-06T09:43:24.345Z,1.60
2022-09-06T09:44:26.926Z,1.50
2022-09-06T09:45:23.953Z,1.60
2022-09-06T09:46:29.805Z,1.70
2022-09-06T09:47:25.701Z,1.80
2022-09-06T09:48:30.078Z,1.40
2022-09-06T09:49:23.659Z,1.70
2022-09-06T09:50:28.429Z,1.50
2022-09-06T09:51:27.410Z,1.60
2022-09-06T09:52:23.883Z,1.70
2022-09-06T09:53:28.289Z,1.70
2022-09-06T09:54:24.677Z,1.60
2022-09-06T09:55:27.890Z,1.50
2022-09-06T09:56:24.127Z,1.50
2022-09-06T09:57:24.178Z,1.60
2022-09-06T09:58:54.364Z,1.60
2022-09-06T09:59:32.046Z,1.70
2022-09-06T10:00:25.319Z,1.40
2022-09-06T10:01:29.015Z,1.70
2022-09-06T10:02:24.800Z,1.40
2022-09-06T10:03:26.292Z,1.50
2022-09-06T10:04:45.964Z,1.60
2022-09-06T10:05:37.174Z,1.80
2022-09-06T10:07:26.030Z,1.50
2022-09-06T10:08:29.265Z,1.80
2022-09-06T10:09:24.609Z,1.70
2022-09-06T10:10:23.620Z,1.60
2022-09-06T10:11:23.954Z,1.50
2022-09-06T10:12:24.676Z,1.70
2022-09-06T10:13:23.434Z,1.90
2022-09-06T10:14:25.109Z,1.80
2022-09-06T10:15:25.004Z,1.60
2022-09-06T10:16:26.933Z,1.60
2022-09-06T10:17:24.387Z,1.50
2022-09-06T10:18:24.716Z,1.30
2022-09-06T10:19:58.471Z,1.60
2022-09-06T10:20:28.723Z,1.60
2022-09-06T10:21:23.375Z,1.60
2022-09-06T10:22:32.462Z,1.70
2022-09-06T10:24:51.921Z,1.50
2022-09-06T10:25:24.977Z,1.40
2022-09-06T10:26:26.995Z,1.40
2022-09-06T10:27:23.538Z,1.60
2022-09-06T10:28:27.527Z,1.60
2022-09-06T10:29:25.730Z,1.30
2022-09-06T10:30:25.307Z,1.50
2022-09-06T10:31:24.069Z,1.40
2022-09-06T10:32:26.418Z,1.20
2022-09-06T10:33:27.478Z,1.30
2022-09-06T10:34:22.994Z,1.40
2022-09-06T10:35:23.172Z,1.20
2022-09-06T10:36:42.364Z,1.20
2022-09-06T10:37:31.451Z,1.20
2022-09-06T10:38:33.961Z,1.40
2022-09-06T10:39:58.627Z,1.40
2022-09-06T10:41:02.630Z,1.20
2022-09-06T10:42:02.839Z,1.30
2022-09-06T10:42:56.058Z,1.70
2022-09-06T10:43:26.321Z,1.10
2022-09-06T10:44:25.833Z,1.30
2022-09-06T10:45:26.433Z,1.30
2022-09-06T10:46:24.089Z,1.30
2022-09-06T10:47:32.683Z,1.20
2022-09-06T10:48:33.236Z,1.20
2022-09-06T10:49:25.869Z,1.20
2022-09-06T10:50:26.847Z,1.20
2022-09-06T10:51:41.740Z,1.20
2022-09-06T10:52:29.764Z,1.20
2022-09-06T10:53:35.062Z,1.20
2022-09-06T11:28:11.454Z,1.20
2022-09-06T11:29:04.269Z,1.20
2022-09-06T11:32:44.445Z,1.10
2022-09-06T11:33:49.632Z,1.00
2022-09-06T11:38:22.828Z,1.10
2022-09-06T11:41:24.025Z,1.00
2022-09-06T11:42:22.175Z,1.10
2022-09-06T11:43:21.080Z,1.10
2022-09-06T11:44:21.255Z,1.00
2022-09-06T11:45:21.063Z,0.90
2022-09-06T11:46:20.953Z,0.90
2022-09-06T11:47:21.191Z,1.20
2022-09-06T11:48:28.895Z,1.20
2022-09-06T11:49:30.111Z,1.00
2022-09-06T11:50:47.765Z,1.10
2022-09-06T11:51:57.656Z,1.10
2022-09-06T11:52:49.673Z,1.20
2022-09-06T11:53:30.899Z,1.10
2022-09-06T11:54:50.938Z,1.20
2022-09-06T11:55:44.697Z,1.00
2022-09-06T11:56:26.534Z,1.10
2022-09-06T11:57:34.468Z,0.80
2022-09-06T11:58:22.674Z,1.20
2022-09-06T11:59:23.614Z,1.20
2022-09-06T12:00:23.008Z,1.10
2022-09-06T12:01:27.588Z,0.90
2022-09-06T12:02:22.448Z,0.90
2022-09-06T12:04:36.244Z,1.00
2022-09-06T12:05:27.018Z,0.90
2022-09-06T12:06:23.770Z,0.90
2022-09-06T12:07:31.448Z,0.80
2022-09-06T12:09:46.069Z,0.80
2022-09-06T12:10:39.132Z,0.80
2022-09-06T12:11:43.909Z,0.80
2022-09-06T12:12:34.937Z,1.00
2022-09-06T12:13:46.193Z,0.70
2022-09-06T12:14:33.838Z,1.00
2022-09-06T12:15:37.788Z,0.80
2022-09-06T12:16:58.798Z,0.90
2022-09-06T12:17:31.797Z,0.80
2022-09-06T12:18:38.891Z,0.90
2022-09-06T12:19:33.098Z,1.00
2022-09-06T12:20:35.973Z,1.10
2022-09-06T12:21:37.832Z,1.00
2022-09-06T12:22:34.250Z,0.90
2022-09-06T12:23:44.689Z,0.90
2022-09-06T12:24:33.081Z,1.00
2022-09-06T12:25:41.370Z,0.80
2022-09-06T12:26:36.265Z,0.80
2022-09-06T12:27:43.172Z,0.80
2022-09-06T12:28:37.475Z,0.80
2022-09-06T12:29:41.087Z,0.70
2022-09-06T12:30:32.717Z,1.20
2022-09-06T12:31:42.777Z,0.90
2022-09-06T12:32:37.216Z,0.70
2022-09-06T12:33:32.664Z,0.70
2022-09-06T12:34:33.535Z,0.80
2022-09-06T12:36:36.525Z,0.70
2022-09-06T12:37:40.568Z,0.90
2022-09-06T12:38:35.609Z,1.00
2022-09-06T12:39:46.583Z,0.80
2022-09-06T12:40:37.529Z,1.10
2022-09-06T12:41:37.499Z,0.80
2022-09-06T12:42:36.867Z,0.60
2022-09-06T12:46:17.192Z,0.60
2022-09-06T12:47:16.239Z,0.60
2022-09-06T12:48:32.682Z,0.70
2022-09-06T12:49:16.802Z,0.70
2022-09-06T12:50:15.353Z,0.50
2022-09-06T12:51:14.896Z,0.60
2022-09-06T12:52:17.492Z,0.80
2022-09-06T12:54:26.781Z,0.70
2022-09-06T12:55:31.553Z,0.80
2022-09-06T12:56:28.906Z,0.60
2022-09-06T12:57:25.512Z,0.90
2022-09-06T12:58:25.685Z,0.90
2022-09-06T12:59:39.134Z,0.70
2022-09-06T13:00:28.194Z,0.80
2022-09-06T13:01:33.053Z,1.30
2022-09-06T13:02:31.171Z,0.80
2022-09-06T13:03:25.506Z,0.60
2022-09-06T13:04:27.789Z,0.70
2022-09-06T13:05:31.141Z,0.60
2022-09-06T13:06:30.891Z,0.70
2022-09-06T13:07:33.898Z,0.70
2022-09-06T13:08:26.914Z,0.70
2022-09-06T13:09:25.412Z,0.80
2022-09-06T13:10:33.258Z,0.60
2022-09-06T13:11:26.296Z,0.80
2022-09-06T13:12:32.714Z,0.70
2022-09-06T13:13:30.828Z,0.60
2022-09-06T13:14:25.337Z,0.80
2022-09-06T13:15:29.577Z,0.90
2022-09-06T13:16:34.054Z,0.90
2022-09-06T13:17:35.324Z,0.70
2022-09-06T13:18:31.419Z,0.60
2022-09-06T13:19:26.336Z,0.80
2022-09-06T13:20:30.509Z,0.70
2022-09-06T13:21:27.998Z,0.70
2022-09-06T13:22:27.511Z,0.80
2022-09-06T13:23:35.942Z,0.90
2022-09-06T13:24:34.747Z,0.70
2022-09-06T13:25:55.632Z,0.70
2022-09-06T13:27:01.937Z,0.90
2022-09-06T13:27:40.701Z,0.80
2022-09-06T13:28:25.403Z,0.80
2022-09-06T13:29:29.479Z,0.90
2022-09-06T13:30:26.202Z,0.70
2022-09-06T13:31:31.269Z,0.70
2022-09-06T13:32:30.586Z,0.60
2022-09-06T13:33:25.564Z,0.80
2022-09-06T13:34:27.066Z,0.60
2022-09-06T13:35:36.332Z,0.80
2022-09-06T13:36:28.072Z,0.80
2022-09-06T13:37:50.286Z,1.00
2022-09-06T13:38:33.528Z,1.00
2022-09-06T13:39:39.810Z,0.90
2022-09-06T13:40:59.946Z,0.70
2022-09-06T13:42:50.064Z,0.70
2022-09-06T13:44:09.557Z,0.80
2022-09-06T13:44:41.344Z,0.70
2022-09-06T13:45:40.124Z,0.80
2022-09-06T13:47:06.417Z,0.60
2022-09-06T13:47:46.148Z,1.10
2022-09-06T13:48:56.590Z,0.80
2022-09-06T13:49:39.904Z,0.70
2022-09-06T13:50:45.159Z,0.70
2022-09-06T13:51:48.399Z,0.70
2022-09-06T13:52:40.227Z,0.80
2022-09-06T13:53:45.382Z,0.80
2022-09-06T13:54:48.140Z,0.60
2022-09-06T13:55:46.084Z,0.70
2022-09-06T13:56:47.466Z,0.70
2022-09-06T13:57:38.491Z,0.60
2022-09-06T14:00:03.393Z,1.10
2022-09-06T14:00:47.885Z,1.00
2022-09-06T14:01:53.886Z,0.90
2022-09-06T14:02:50.397Z,0.70
2022-09-06T14:03:56.353Z,0.90
2022-09-06T14:04:54.537Z,0.70
2022-09-06T14:05:49.500Z,0.60
2022-09-06T14:06:48.845Z,0.80
2022-09-06T14:07:59.326Z,0.80
2022-09-06T14:09:07.517Z,1.00
2022-09-06T14:10:03.696Z,0.80
2022-09-06T14:12:24.726Z,0.70
2022-09-06T14:13:15.557Z,0.70
2022-09-06T14:14:33.225Z,0.90
2022-09-06T14:15:13.534Z,0.80
2022-09-06T14:16:13.038Z,0.60
2022-09-06T14:17:12.865Z,1.10
2022-09-06T14:18:15.944Z,0.90
2022-09-06T14:19:20.731Z,0.70
2022-09-06T14:20:15.696Z,0.80
2022-09-06T14:21:12.546Z,0.80
2022-09-06T14:22:15.882Z,0.80
2022-09-06T14:23:12.505Z,0.50
2022-09-06T14:24:20.501Z,0.90
2022-09-06T14:25:12.538Z,0.90
2022-09-06T14:26:12.740Z,1.00
2022-09-06T14:27:42.943Z,0.50
2022-09-06T14:28:17.547Z,0.90
2022-09-06T14:29:14.815Z,0.80
2022-09-06T14:30:18.900Z,0.80
2022-09-06T14:31:11.897Z,0.80
2022-09-06T14:37:27.021Z,0.80
2022-09-06T14:38:23.702Z,0.70
2022-09-06T14:39:27.063Z,0.90
2022-09-06T14:40:24.081Z,0.70
2022-09-06T14:41:29.224Z,0.80
2022-09-06T14:42:30.743Z,0.80
2022-09-06T14:43:27.272Z,0.80
2022-09-06T14:44:22.555Z,0.70
2022-09-06T14:45:30.285Z,0.90
2022-09-06T14:46:52.598Z,0.80
2022-09-06T14:47:21.291Z,0.80
2022-09-06T14:48:19.542Z,0.90
2022-09-06T14:49:21.490Z,0.80
2022-09-06T14:50:20.659Z,0.90
2022-09-06T14:51:26.026Z,0.70
2022-09-06T14:53:48.237Z,0.80
2022-09-06T14:56:16.390Z,1.00
2022-09-06T14:57:00.640Z,0.90
2022-09-06T14:57:55.593Z,0.80
2022-09-06T14:58:49.016Z,1.00
2022-09-06T14:59:49.536Z,1.00
2022-09-06T15:00:50.105Z,0.60
2022-09-06T15:01:53.866Z,0.80
2022-09-06T15:02:51.355Z,0.80
2022-09-06T15:03:53.560Z,0.70